Terminal Aerodrome Forecast
Issued by NWS

Home | Current Version | Previous Version | Text Only | Print | Product List | Glossary On
Versions: 1 2 3 4 5 6 7 8 9 10 11 12 13 14 15 16 17 18 19 20 21 22 23 24 25 26 27 28 29 30 31
102
FTUS41 KBOX 310105 AAA
TAFFMH
TAF AMD
KFMH 310105Z 3101/3124 23005KT P6SM OVC008
     FM310800 VRB03KT P6SM VCSH OVC025
     FM311000 VRB03KT 5SM BR VCSH OVC015
     FM311300 13005KT P6SM VCSH OVC015
     FM311900 11007KT P6SM VCSH OVC040
      AMD NOT SKED=

USA.gov is the U.S. government's official web portal to all federal, state and local government web resources and services.